Time,TemperatureF,DewpointF,PressureIn,WindDirection,WindDirectionDegrees,WindSpeedMPH,WindSpeedGustMPH,Humidity,HourlyPrecipIn,Conditions,Clouds,dailyrainin,SoftwareType,DateUTC
2013-02-02 00:00:00,13.9,9.4,30.28,SSW,205,1.0,7.0,82,0.00,,---,0.00,VWS V14.00,2013-02-02 05:00:00,
2013-02-02 00:30:00,14.3,9.8,30.28,SSE,160,5.0,7.0,82,0.00,,---,0.00,VWS V14.00,2013-02-02 05:30:00,
2013-02-02 01:00:00,15.2,10.7,30.27,SW,225,5.0,9.0,82,0.00,,---,0.00,VWS V14.00,2013-02-02 06:00:00,
2013-02-02 01:30:00,15.5,11.8,30.26,WSW,245,6.0,9.0,85,0.00,,---,0.00,VWS V14.00,2013-02-02 06:30:00,
2013-02-02 02:00:00,15.9,12.5,30.26,SW,217,3.0,9.0,86,0.00,,---,0.00,VWS V14.00,2013-02-02 07:00:00,
2013-02-02 02:30:00,16.4,13.2,30.26,SSW,211,2.0,11.0,87,0.00,,---,0.00,VWS V14.00,2013-02-02 07:30:00,
2013-02-02 03:00:00,16.7,14.0,30.25,SSW,208,3.0,7.0,89,0.00,,---,0.00,VWS V14.00,2013-02-02 08:00:00,
2013-02-02 03:30:00,16.7,14.0,30.24,SSW,211,2.0,9.0,89,0.00,,---,0.00,VWS V14.00,2013-02-02 08:30:00,
2013-02-02 04:00:00,17.3,14.6,30.22,SSW,210,1.0,7.0,89,0.00,,---,0.00,VWS V14.00,2013-02-02 09:00:00,
2013-02-02 04:30:00,17.4,14.7,30.19,SSW,211,3.0,7.0,89,0.00,,---,0.00,VWS V14.00,2013-02-02 09:30:00,
2013-02-02 05:00:00,17.5,14.6,30.15,SSE,152,2.0,7.0,88,0.00,,---,0.00,VWS V14.00,2013-02-02 10:00:00,
2013-02-02 05:30:00,17.7,14.8,30.15,SSW,201,5.0,9.0,88,0.00,,---,0.00,VWS V14.00,2013-02-02 10:30:00,
2013-02-02 06:00:00,17.9,15.2,30.15,SSW,193,2.0,10.0,89,0.00,,---,0.00,VWS V14.00,2013-02-02 11:00:00,
2013-02-02 06:30:00,18.2,15.5,30.14,SSW,203,3.0,8.0,89,0.00,,---,0.00,VWS V14.00,2013-02-02 11:30:00,
2013-02-02 07:00:00,18.5,16.1,30.13,South,181,2.0,9.0,90,0.00,,---,0.00,VWS V14.00,2013-02-02 12:00:00,
2013-02-02 07:30:00,18.7,16.3,30.11,SSW,195,2.0,7.0,90,0.00,,---,0.00,VWS V14.00,2013-02-02 12:30:00,
2013-02-02 08:00:00,19.4,17.0,30.10,South,181,3.0,10.0,90,0.00,,---,0.00,VWS V14.00,2013-02-02 13:00:00,
2013-02-02 08:30:00,20.3,17.8,30.10,SSW,211,4.0,10.0,90,0.00,,---,0.00,VWS V14.00,2013-02-02 13:30:00,
2013-02-02 09:00:00,20.6,18.1,30.10,WSW,240,5.0,12.0,90,0.00,,---,0.00,VWS V14.00,2013-02-02 14:00:00,
2013-02-02 09:30:00,20.9,18.4,30.09,SW,215,3.0,8.0,90,0.00,,---,0.00,VWS V14.00,2013-02-02 14:30:00,
2013-02-02 10:00:00,21.5,19.0,30.08,WSW,243,2.0,10.0,90,0.00,,---,0.00,VWS V14.00,2013-02-02 15:00:00,
2013-02-02 10:30:00,21.8,19.3,30.07,West,266,2.0,8.0,90,0.00,,---,0.00,VWS V14.00,2013-02-02 15:30:00,
2013-02-02 11:00:00,22.3,19.6,30.06,SW,233,3.0,11.0,89,0.00,,---,0.00,VWS V14.00,2013-02-02 16:00:00,
2013-02-02 11:30:00,22.8,19.8,30.05,WSW,250,10.0,12.0,88,0.00,,---,0.00,VWS V14.00,2013-02-02 16:30:00,
2013-02-02 12:00:00,23.0,20.2,30.05,WSW,250,9.0,16.0,89,0.00,,---,0.00,VWS V14.00,2013-02-02 17:00:00,
2013-02-02 12:30:00,23.1,20.4,30.03,West,266,7.0,13.0,89,0.00,,---,0.00,VWS V14.00,2013-02-02 17:30:00,
2013-02-02 13:00:00,23.4,20.9,30.02,WSW,252,9.0,12.0,90,0.00,,---,0.00,VWS V14.00,2013-02-02 18:00:00,
2013-02-02 13:30:00,23.5,21.0,30.01,West,273,8.0,14.0,90,0.00,,---,0.00,VWS V14.00,2013-02-02 18:30:00,
2013-02-02 14:00:00,23.8,21.6,30.01,WNW,283,7.0,10.0,91,0.00,,---,0.00,VWS V14.00,2013-02-02 19:00:00,
2013-02-02 14:30:00,24.2,21.7,30.00,WSW,256,6.0,11.0,90,0.00,,---,0.00,VWS V14.00,2013-02-02 19:30:00,
2013-02-02 15:00:00,24.6,21.8,30.00,West,279,5.0,9.0,89,0.00,,---,0.00,VWS V14.00,2013-02-02 20:00:00,
2013-02-02 15:30:00,24.8,22.0,30.00,WSW,241,4.0,12.0,89,0.00,,---,0.00,VWS V14.00,2013-02-02 20:30:00,
2013-02-02 16:00:00,25.0,22.0,30.01,WSW,256,6.0,11.0,88,0.00,,---,0.00,VWS V14.00,2013-02-02 21:00:00,
2013-02-02 16:30:00,22.3,18.8,30.02,NNW,331,8.0,13.0,86,0.00,,---,0.00,VWS V14.00,2013-02-02 21:30:00,
2013-02-02 17:00:00,21.0,18.5,30.04,NNE,32,3.0,12.0,90,0.00,,---,0.00,VWS V14.00,2013-02-02 22:00:00,
2013-02-02 17:30:00,20.5,17.8,30.04,NNW,347,4.0,8.0,89,0.00,,---,0.00,VWS V14.00,2013-02-02 22:30:00,
2013-02-02 18:00:00,20.4,17.7,30.05,NNW,343,4.0,5.0,89,0.00,,---,0.00,VWS V14.00,2013-02-02 23:00:00,
2013-02-02 18:30:00,20.2,17.5,30.05,North,352,1.0,6.0,89,0.00,,---,0.00,VWS V14.00,2013-02-02 23:30:00,
2013-02-02 19:00:00,20.2,17.0,30.05,North,354,3.0,4.0,87,0.00,,---,0.00,VWS V14.00,2013-02-03 00:00:00,
2013-02-02 19:30:00,20.0,16.5,30.05,North,6,2.0,4.0,86,0.00,,---,0.00,VWS V14.00,2013-02-03 00:30:00,
2013-02-02 20:00:00,19.7,16.5,30.06,NE,37,2.0,4.0,87,0.00,,---,0.00,VWS V14.00,2013-02-03 01:00:00,
2013-02-02 20:30:00,19.3,16.1,30.07,NE,44,4.0,5.0,87,0.00,,---,0.00,VWS V14.00,2013-02-03 01:30:00,
2013-02-02 21:00:00,18.7,14.7,30.08,ENE,75,1.0,4.0,84,0.00,,---,0.00,VWS V14.00,2013-02-03 02:00:00,
2013-02-02 21:30:00,18.4,14.4,30.08,NNE,28,0.0,3.0,84,0.00,,---,0.00,VWS V14.00,2013-02-03 02:30:00,
2013-02-02 22:00:00,18.1,14.1,30.08,North,10,2.0,4.0,84,0.00,,---,0.00,VWS V14.00,2013-02-03 03:00:00,
2013-02-02 22:30:00,17.6,13.9,30.07,NE,38,2.0,4.0,85,0.00,,---,0.00,VWS V14.00,2013-02-03 03:30:00,
2013-02-02 23:00:00,17.4,13.9,30.06,NNE,32,2.0,4.0,86,0.00,,---,0.00,VWS V14.00,2013-02-03 04:00:00,
2013-02-02 23:30:00,17.3,14.1,30.06,NNW,327,0.0,2.0,87,0.00,,---,0.00,VWS V14.00,2013-02-03 04:30:00,